sensor_id;sensor_type;location;lat;lon;timestamp;temperature;humidity
47757;SHT35;22147;52.388;13.390;2022-08-14T00:02:13;20.69;86.34
47757;SHT35;22147;52.388;13.390;2022-08-14T00:04:40;20.74;86.28
47757;SHT35;22147;52.388;13.390;2022-08-14T00:07:12;20.74;86.28
47757;SHT35;22147;52.388;13.390;2022-08-14T00:09:44;20.69;86.62
47757;SHT35;22147;52.388;13.390;2022-08-14T00:12:37;20.68;86.02
47757;SHT35;22147;52.388;13.390;2022-08-14T00:15:32;20.68;86.64
47757;SHT35;22147;52.388;13.390;2022-08-14T00:18:18;20.55;87.14
47757;SHT35;22147;52.388;13.390;2022-08-14T00:21:06;20.54;86.57
47757;SHT35;22147;52.388;13.390;2022-08-14T00:23:39;20.50;86.46
47757;SHT35;22147;52.388;13.390;2022-08-14T00:26:06;20.47;86.58
47757;SHT35;22147;52.388;13.390;2022-08-14T00:28:48;20.51;86.91
47757;SHT35;22147;52.388;13.390;2022-08-14T00:31:17;20.50;85.96
47757;SHT35;22147;52.388;13.390;2022-08-14T00:33:45;20.57;85.42
47757;SHT35;22147;52.388;13.390;2022-08-14T00:36:21;20.55;85.69
47757;SHT35;22147;52.388;13.390;2022-08-14T00:39:13;20.55;85.52
47757;SHT35;22147;52.388;13.390;2022-08-14T00:41:46;20.55;85.29
47757;SHT35;22147;52.388;13.390;2022-08-14T00:44:15;20.61;85.07
47757;SHT35;22147;52.388;13.390;2022-08-14T00:46:53;20.60;85.64
47757;SHT35;22147;52.388;13.390;2022-08-14T00:49:25;20.51;85.77
47757;SHT35;22147;52.388;13.390;2022-08-14T00:51:52;20.47;86.09
47757;SHT35;22147;52.388;13.390;2022-08-14T00:54:22;20.44;85.92
47757;SHT35;22147;52.388;13.390;2022-08-14T00:56:52;20.44;86.44
47757;SHT35;22147;52.388;13.390;2022-08-14T00:59:25;20.40;86.48
47757;SHT35;22147;52.388;13.390;2022-08-14T01:01:59;20.34;86.25
47757;SHT35;22147;52.388;13.390;2022-08-14T01:04:29;20.37;86.58
47757;SHT35;22147;52.388;13.390;2022-08-14T01:07:20;20.34;86.39
47757;SHT35;22147;52.388;13.390;2022-08-14T01:09:57;20.33;86.41
47757;SHT35;22147;52.388;13.390;2022-08-14T01:12:27;20.30;86.50
47757;SHT35;22147;52.388;13.390;2022-08-14T01:15:00;20.30;86.60
47757;SHT35;22147;52.388;13.390;2022-08-14T01:17:31;20.27;86.46
47757;SHT35;22147;52.388;13.390;2022-08-14T01:20:20;20.21;86.92
47757;SHT35;22147;52.388;13.390;2022-08-14T01:23:14;20.19;86.82
47757;SHT35;22147;52.388;13.390;2022-08-14T01:25:49;20.20;86.91
47757;SHT35;22147;52.388;13.390;2022-08-14T01:28:20;20.19;86.97
47757;SHT35;22147;52.388;13.390;2022-08-14T01:31:17;20.23;86.72
47757;SHT35;22147;52.388;13.390;2022-08-14T01:33:51;20.23;86.23
47757;SHT35;22147;52.388;13.390;2022-08-14T01:36:39;20.23;86.45
47757;SHT35;22147;52.388;13.390;2022-08-14T01:39:13;20.27;86.26
47757;SHT35;22147;52.388;13.390;2022-08-14T01:41:47;20.31;85.88
47757;SHT35;22147;52.388;13.390;2022-08-14T01:44:27;20.34;85.86
47757;SHT35;22147;52.388;13.390;2022-08-14T01:47:07;20.31;87.23
47757;SHT35;22147;52.388;13.390;2022-08-14T01:49:50;20.24;86.67
47757;SHT35;22147;52.388;13.390;2022-08-14T01:52:29;20.26;86.91
47757;SHT35;22147;52.388;13.390;2022-08-14T01:55:17;20.26;86.38
47757;SHT35;22147;52.388;13.390;2022-08-14T01:57:45;20.26;86.55
47757;SHT35;22147;52.388;13.390;2022-08-14T02:00:32;20.26;86.57
47757;SHT35;22147;52.388;13.390;2022-08-14T02:03:05;20.27;86.41
47757;SHT35;22147;52.388;13.390;2022-08-14T02:05:34;20.27;86.26
47757;SHT35;22147;52.388;13.390;2022-08-14T02:08:06;20.27;86.38
47757;SHT35;22147;52.388;13.390;2022-08-14T02:10:41;20.29;86.18
47757;SHT35;22147;52.388;13.390;2022-08-14T02:13:15;20.31;86.02
47757;SHT35;22147;52.388;13.390;2022-08-14T02:15:45;20.37;85.88
47757;SHT35;22147;52.388;13.390;2022-08-14T02:18:16;20.36;85.72
47757;SHT35;22147;52.388;13.390;2022-08-14T02:20:45;20.38;85.92
47757;SHT35;22147;52.388;13.390;2022-08-14T02:23:13;20.38;85.95
47757;SHT35;22147;52.388;13.390;2022-08-14T02:25:40;20.37;86.20
47757;SHT35;22147;52.388;13.390;2022-08-14T02:28:08;20.34;86.83
47757;SHT35;22147;52.388;13.390;2022-08-14T02:30:58;20.29;87.09
47757;SHT35;22147;52.388;13.390;2022-08-14T02:33:26;20.26;86.73
47757;SHT35;22147;52.388;13.390;2022-08-14T02:35:59;20.27;86.79
47757;SHT35;22147;52.388;13.390;2022-08-14T02:38:46;20.29;86.86
47757;SHT35;22147;52.388;13.390;2022-08-14T02:41:14;20.30;86.52
47757;SHT35;22147;52.388;13.390;2022-08-14T02:43:43;20.31;86.67
47757;SHT35;22147;52.388;13.390;2022-08-14T02:46:16;20.27;86.89
47757;SHT35;22147;52.388;13.390;2022-08-14T02:48:53;20.26;87.00
47757;SHT35;22147;52.388;13.390;2022-08-14T02:51:33;20.26;86.83
47757;SHT35;22147;52.388;13.390;2022-08-14T02:54:06;20.26;87.08
47757;SHT35;22147;52.388;13.390;2022-08-14T02:56:36;20.24;86.97
47757;SHT35;22147;52.388;13.390;2022-08-14T02:59:28;20.27;86.55
47757;SHT35;22147;52.388;13.390;2022-08-14T03:02:02;20.33;86.39
47757;SHT35;22147;52.388;13.390;2022-08-14T03:04:30;20.31;86.47
47757;SHT35;22147;52.388;13.390;2022-08-14T03:06:59;20.29;86.98
47757;SHT35;22147;52.388;13.390;2022-08-14T03:09:38;20.27;86.99
47757;SHT35;22147;52.388;13.390;2022-08-14T03:12:26;20.26;87.08
47757;SHT35;22147;52.388;13.390;2022-08-14T03:15:04;20.23;87.30
47757;SHT35;22147;52.388;13.390;2022-08-14T03:17:42;20.23;87.39
47757;SHT35;22147;52.388;13.390;2022-08-14T03:20:27;20.23;87.41
47757;SHT35;22147;52.388;13.390;2022-08-14T03:22:58;20.12;88.17
47757;SHT35;22147;52.388;13.390;2022-08-14T03:25:32;20.08;88.29
47757;SHT35;22147;52.388;13.390;2022-08-14T03:28:08;20.03;87.96
47757;SHT35;22147;52.388;13.390;2022-08-14T03:30:59;20.08;87.70
47757;SHT35;22147;52.388;13.390;2022-08-14T03:33:28;20.13;87.51
47757;SHT35;22147;52.388;13.390;2022-08-14T03:36:11;20.12;87.42
47757;SHT35;22147;52.388;13.390;2022-08-14T03:39:05;20.06;87.54
47757;SHT35;22147;52.388;13.390;2022-08-14T03:41:42;20.06;87.44
47757;SHT35;22147;52.388;13.390;2022-08-14T03:44:09;20.10;87.34
47757;SHT35;22147;52.388;13.390;2022-08-14T03:46:56;20.09;87.41
47757;SHT35;22147;52.388;13.390;2022-08-14T03:49:24;20.10;87.44
47757;SHT35;22147;52.388;13.390;2022-08-14T03:51:58;20.09;87.35
47757;SHT35;22147;52.388;13.390;2022-08-14T03:54:43;20.09;87.45
47757;SHT35;22147;52.388;13.390;2022-08-14T03:57:18;20.09;87.56
47757;SHT35;22147;52.388;13.390;2022-08-14T03:59:49;20.09;87.65
47757;SHT35;22147;52.388;13.390;2022-08-14T04:02:17;20.06;88.34
47757;SHT35;22147;52.388;13.390;2022-08-14T04:05:09;20.02;88.03
47757;SHT35;22147;52.388;13.390;2022-08-14T04:07:40;20.03;87.77
47757;SHT35;22147;52.388;13.390;2022-08-14T04:10:28;20.09;87.68
47757;SHT35;22147;52.388;13.390;2022-08-14T04:13:03;20.08;87.74
47757;SHT35;22147;52.388;13.390;2022-08-14T04:15:34;20.08;87.90
47757;SHT35;22147;52.388;13.390;2022-08-14T04:18:21;20.06;87.81
47757;SHT35;22147;52.388;13.390;2022-08-14T04:20:48;20.12;87.41
47757;SHT35;22147;52.388;13.390;2022-08-14T04:23:23;20.14;87.89
47757;SHT35;22147;52.388;13.390;2022-08-14T04:26:03;20.12;87.70
47757;SHT35;22147;52.388;13.390;2022-08-14T04:28:38;20.08;88.74
47757;SHT35;22147;52.388;13.390;2022-08-14T04:31:26;20.02;88.63
47757;SHT35;22147;52.388;13.390;2022-08-14T04:34:14;20.03;88.48
47757;SHT35;22147;52.388;13.390;2022-08-14T04:36:43;20.08;88.21
47757;SHT35;22147;52.388;13.390;2022-08-14T04:39:33;20.05;89.63
47757;SHT35;22147;52.388;13.390;2022-08-14T04:42:25;19.89;90.38
47757;SHT35;22147;52.388;13.390;2022-08-14T04:45:23;19.83;90.70
47757;SHT35;22147;52.388;13.390;2022-08-14T04:47:55;19.90;90.26
47757;SHT35;22147;52.388;13.390;2022-08-14T04:51:06;19.78;90.87
47757;SHT35;22147;52.388;13.390;2022-08-14T04:53:38;19.76;91.02
47757;SHT35;22147;52.388;13.390;2022-08-14T04:56:17;19.90;90.62
47757;SHT35;22147;52.388;13.390;2022-08-14T04:59:05;20.08;90.09
47757;SHT35;22147;52.388;13.390;2022-08-14T05:01:42;20.21;89.23
47757;SHT35;22147;52.388;13.390;2022-08-14T05:04:18;20.31;88.70
47757;SHT35;22147;52.388;13.390;2022-08-14T05:06:50;20.31;88.42
47757;SHT35;22147;52.388;13.390;2022-08-14T05:09:24;20.44;88.03
47757;SHT35;22147;52.388;13.390;2022-08-14T05:11:56;20.55;88.00
47757;SHT35;22147;52.388;13.390;2022-08-14T05:14:44;20.69;87.24
47757;SHT35;22147;52.388;13.390;2022-08-14T05:17:22;20.87;86.95
47757;SHT35;22147;52.388;13.390;2022-08-14T05:19:58;20.92;86.03
47757;SHT35;22147;52.388;13.390;2022-08-14T05:22:45;21.08;86.09
47757;SHT35;22147;52.388;13.390;2022-08-14T05:25:12;21.20;85.79
47757;SHT35;22147;52.388;13.390;2022-08-14T05:27:40;21.33;85.72
47757;SHT35;22147;52.388;13.390;2022-08-14T05:30:09;21.35;86.54
47757;SHT35;22147;52.388;13.390;2022-08-14T05:32:42;21.49;86.66
47757;SHT35;22147;52.388;13.390;2022-08-14T05:35:12;21.67;86.13
47757;SHT35;22147;52.388;13.390;2022-08-14T05:37:40;21.90;85.19
47757;SHT35;22147;52.388;13.390;2022-08-14T05:40:11;22.11;84.82
47757;SHT35;22147;52.388;13.390;2022-08-14T05:42:39;22.20;85.01
47757;SHT35;22147;52.388;13.390;2022-08-14T05:45:18;22.14;84.29
47757;SHT35;22147;52.388;13.390;2022-08-14T05:47:46;22.26;83.60
47757;SHT35;22147;52.388;13.390;2022-08-14T05:50:17;22.43;82.03
47757;SHT35;22147;52.388;13.390;2022-08-14T05:52:49;22.60;81.78
47757;SHT35;22147;52.388;13.390;2022-08-14T05:55:19;22.87;81.18
47757;SHT35;22147;52.388;13.390;2022-08-14T05:57:56;22.84;80.34
47757;SHT35;22147;52.388;13.390;2022-08-14T06:00:41;23.10;81.55
47757;SHT35;22147;52.388;13.390;2022-08-14T06:03:21;23.35;80.90
47757;SHT35;22147;52.388;13.390;2022-08-14T06:05:54;23.45;79.11
47757;SHT35;22147;52.388;13.390;2022-08-14T06:08:30;23.51;78.73
47757;SHT35;22147;52.388;13.390;2022-08-14T06:11:09;23.52;79.04
47757;SHT35;22147;52.388;13.390;2022-08-14T06:13:53;23.74;78.49
47757;SHT35;22147;52.388;13.390;2022-08-14T06:16:21;23.93;79.25
47757;SHT35;22147;52.388;13.390;2022-08-14T06:18:48;24.03;78.56
47757;SHT35;22147;52.388;13.390;2022-08-14T06:21:21;24.13;78.02
47757;SHT35;22147;52.388;13.390;2022-08-14T06:23:49;24.19;78.07
47757;SHT35;22147;52.388;13.390;2022-08-14T06:26:18;24.41;77.10
47757;SHT35;22147;52.388;13.390;2022-08-14T06:28:49;24.52;76.32
47757;SHT35;22147;52.388;13.390;2022-08-14T06:31:19;24.50;75.46
47757;SHT35;22147;52.388;13.390;2022-08-14T06:33:48;24.50;75.07
47757;SHT35;22147;52.388;13.390;2022-08-14T06:36:36;24.54;76.86
47757;SHT35;22147;52.388;13.390;2022-08-14T06:39:06;24.44;76.08
47757;SHT35;22147;52.388;13.390;2022-08-14T06:41:38;24.23;76.46
47757;SHT35;22147;52.388;13.390;2022-08-14T06:44:27;24.08;75.84
47757;SHT35;22147;52.388;13.390;2022-08-14T06:47:01;23.95;76.55
47757;SHT35;22147;52.388;13.390;2022-08-14T06:49:29;23.86;76.18
47757;SHT35;22147;52.388;13.390;2022-08-14T06:52:11;23.52;76.38
47757;SHT35;22147;52.388;13.390;2022-08-14T06:54:42;23.59;76.89
47757;SHT35;22147;52.388;13.390;2022-08-14T06:57:11;23.61;76.93
47757;SHT35;22147;52.388;13.390;2022-08-14T06:59:39;23.62;77.95
47757;SHT35;22147;52.388;13.390;2022-08-14T07:02:07;23.62;75.99
47757;SHT35;22147;52.388;13.390;2022-08-14T07:04:55;23.79;75.62
47757;SHT35;22147;52.388;13.390;2022-08-14T07:07:49;23.95;74.72
47757;SHT35;22147;52.388;13.390;2022-08-14T07:10:17;24.10;74.68
47757;SHT35;22147;52.388;13.390;2022-08-14T07:12:45;24.22;74.08
47757;SHT35;22147;52.388;13.390;2022-08-14T07:15:31;24.50;74.25
47757;SHT35;22147;52.388;13.390;2022-08-14T07:18:07;24.78;72.35
47757;SHT35;22147;52.388;13.390;2022-08-14T07:20:37;24.92;72.34
47757;SHT35;22147;52.388;13.390;2022-08-14T07:23:08;25.18;72.46
47757;SHT35;22147;52.388;13.390;2022-08-14T07:25:47;25.46;70.86
47757;SHT35;22147;52.388;13.390;2022-08-14T07:28:32;25.49;70.69
47757;SHT35;22147;52.388;13.390;2022-08-14T07:31:08;25.60;68.78
47757;SHT35;22147;52.388;13.390;2022-08-14T07:33:45;25.74;71.02
47757;SHT35;22147;52.388;13.390;2022-08-14T07:36:20;25.65;68.29
47757;SHT35;22147;52.388;13.390;2022-08-14T07:39:01;25.42;70.64
47757;SHT35;22147;52.388;13.390;2022-08-14T07:41:40;25.59;67.87
47757;SHT35;22147;52.388;13.390;2022-08-14T07:44:08;25.69;68.16
47757;SHT35;22147;52.388;13.390;2022-08-14T07:46:57;25.81;69.21
47757;SHT35;22147;52.388;13.390;2022-08-14T07:49:26;26.10;66.12
47757;SHT35;22147;52.388;13.390;2022-08-14T07:51:53;26.48;65.17
47757;SHT35;22147;52.388;13.390;2022-08-14T07:54:21;26.82;64.43
47757;SHT35;22147;52.388;13.390;2022-08-14T07:57:00;27.10;62.68
47757;SHT35;22147;52.388;13.390;2022-08-14T07:59:39;27.16;63.38
47757;SHT35;22147;52.388;13.390;2022-08-14T08:02:17;27.10;61.60
47757;SHT35;22147;52.388;13.390;2022-08-14T08:04:52;27.27;62.06
47757;SHT35;22147;52.388;13.390;2022-08-14T08:07:29;27.84;61.76
47757;SHT35;22147;52.388;13.390;2022-08-14T08:10:12;27.86;59.67
47757;SHT35;22147;52.388;13.390;2022-08-14T08:13:20;27.97;58.04
47757;SHT35;22147;52.388;13.390;2022-08-14T08:15:54;27.71;60.16
47757;SHT35;22147;52.388;13.390;2022-08-14T08:18:25;28.19;59.05
47757;SHT35;22147;52.388;13.390;2022-08-14T08:20:56;28.54;58.65
47757;SHT35;22147;52.388;13.390;2022-08-14T08:23:28;28.78;55.69
47757;SHT35;22147;52.388;13.390;2022-08-14T08:26:09;28.81;54.64
47757;SHT35;22147;52.388;13.390;2022-08-14T08:28:37;28.81;54.32
47757;SHT35;22147;52.388;13.390;2022-08-14T08:31:09;28.22;55.84
47757;SHT35;22147;52.388;13.390;2022-08-14T08:33:40;28.37;58.76
47757;SHT35;22147;52.388;13.390;2022-08-14T08:36:09;28.37;55.00
47757;SHT35;22147;52.388;13.390;2022-08-14T08:38:48;28.82;55.80
47757;SHT35;22147;52.388;13.390;2022-08-14T08:41:47;29.26;52.60
47757;SHT35;22147;52.388;13.390;2022-08-14T08:44:16;29.30;53.79
47757;SHT35;22147;52.388;13.390;2022-08-14T08:47:01;28.88;53.32
47757;SHT35;22147;52.388;13.390;2022-08-14T08:49:41;29.09;53.88
47757;SHT35;22147;52.388;13.390;2022-08-14T08:52:27;29.29;52.60
47757;SHT35;22147;52.388;13.390;2022-08-14T08:55:12;29.63;51.87
47757;SHT35;22147;52.388;13.390;2022-08-14T08:57:39;29.53;50.48
47757;SHT35;22147;52.388;13.390;2022-08-14T09:00:16;29.32;51.05
47757;SHT35;22147;52.388;13.390;2022-08-14T09:03:14;29.40;52.63
47757;SHT35;22147;52.388;13.390;2022-08-14T09:06:04;29.30;55.87
47757;SHT35;22147;52.388;13.390;2022-08-14T09:08:51;29.53;51.76
47757;SHT35;22147;52.388;13.390;2022-08-14T09:11:18;29.51;51.14
47757;SHT35;22147;52.388;13.390;2022-08-14T09:13:52;29.59;49.92
47757;SHT35;22147;52.388;13.390;2022-08-14T09:16:24;29.45;50.21
47757;SHT35;22147;52.388;13.390;2022-08-14T09:18:53;29.30;50.57
47757;SHT35;22147;52.388;13.390;2022-08-14T09:21:22;29.12;52.20
47757;SHT35;22147;52.388;13.390;2022-08-14T09:23:53;28.50;53.95
47757;SHT35;22147;52.388;13.390;2022-08-14T09:26:44;28.27;53.62
47757;SHT35;22147;52.388;13.390;2022-08-14T09:29:17;28.65;54.12
47757;SHT35;22147;52.388;13.390;2022-08-14T09:31:59;28.82;53.98
47757;SHT35;22147;52.388;13.390;2022-08-14T09:35:16;29.45;51.33
47757;SHT35;22147;52.388;13.390;2022-08-14T09:38:30;29.65;52.32
47757;SHT35;22147;52.388;13.390;2022-08-14T09:41:52;29.70;50.93
47757;SHT35;22147;52.388;13.390;2022-08-14T09:45:18;29.59;50.46
47757;SHT35;22147;52.388;13.390;2022-08-14T09:47:53;29.65;52.81
47757;SHT35;22147;52.388;13.390;2022-08-14T09:50:29;29.87;50.01
47757;SHT35;22147;52.388;13.390;2022-08-14T09:53:05;29.96;50.76
47757;SHT35;22147;52.388;13.390;2022-08-14T09:55:56;30.38;47.88
47757;SHT35;22147;52.388;13.390;2022-08-14T09:58:46;30.41;48.80
47757;SHT35;22147;52.388;13.390;2022-08-14T10:01:19;30.44;47.56
47757;SHT35;22147;52.388;13.390;2022-08-14T10:03:55;30.24;48.15
47757;SHT35;22147;52.388;13.390;2022-08-14T10:06:28;30.59;47.60
47757;SHT35;22147;52.388;13.390;2022-08-14T10:09:05;30.44;46.20
47757;SHT35;22147;52.388;13.390;2022-08-14T10:11:58;30.46;47.49
47757;SHT35;22147;52.388;13.390;2022-08-14T10:14:28;30.48;46.31
47757;SHT35;22147;52.388;13.390;2022-08-14T10:17:05;30.85;46.05
47757;SHT35;22147;52.388;13.390;2022-08-14T10:19:46;30.80;45.84
47757;SHT35;22147;52.388;13.390;2022-08-14T10:22:13;30.66;45.42
47757;SHT35;22147;52.388;13.390;2022-08-14T10:25:15;30.82;44.82
47757;SHT35;22147;52.388;13.390;2022-08-14T10:27:44;31.19;43.76
47757;SHT35;22147;52.388;13.390;2022-08-14T10:30:17;30.92;44.01
47757;SHT35;22147;52.388;13.390;2022-08-14T10:32:48;30.87;43.98
47757;SHT35;22147;52.388;13.390;2022-08-14T10:35:18;30.28;44.28
47757;SHT35;22147;52.388;13.390;2022-08-14T10:37:51;30.38;45.55
47757;SHT35;22147;52.388;13.390;2022-08-14T10:40:31;30.75;42.84
47757;SHT35;22147;52.388;13.390;2022-08-14T10:43:25;31.26;43.68
47757;SHT35;22147;52.388;13.390;2022-08-14T10:45:59;31.35;42.31
47757;SHT35;22147;52.388;13.390;2022-08-14T10:49:01;31.44;43.02
47757;SHT35;22147;52.388;13.390;2022-08-14T10:51:33;31.06;42.75
47757;SHT35;22147;52.388;13.390;2022-08-14T10:54:09;30.92;43.91
47757;SHT35;22147;52.388;13.390;2022-08-14T10:57:25;30.71;44.08
47757;SHT35;22147;52.388;13.390;2022-08-14T11:00:16;30.97;43.58
47757;SHT35;22147;52.388;13.390;2022-08-14T11:03:03;30.89;43.65
47757;SHT35;22147;52.388;13.390;2022-08-14T11:05:50;31.14;43.50
47757;SHT35;22147;52.388;13.390;2022-08-14T11:08:32;30.99;43.69
47757;SHT35;22147;52.388;13.390;2022-08-14T11:11:03;30.78;43.54
47757;SHT35;22147;52.388;13.390;2022-08-14T11:13:34;30.94;43.08
47757;SHT35;22147;52.388;13.390;2022-08-14T11:16:04;30.59;43.85
47757;SHT35;22147;52.388;13.390;2022-08-14T11:18:32;30.90;42.83
47757;SHT35;22147;52.388;13.390;2022-08-14T11:21:08;31.19;41.32
47757;SHT35;22147;52.388;13.390;2022-08-14T11:23:38;31.33;40.78
47757;SHT35;22147;52.388;13.390;2022-08-14T11:26:12;31.03;41.52
47757;SHT35;22147;52.388;13.390;2022-08-14T11:28:45;30.86;41.85
47757;SHT35;22147;52.388;13.390;2022-08-14T11:31:27;30.80;42.55
47757;SHT35;22147;52.388;13.390;2022-08-14T11:34:04;30.83;41.60
47757;SHT35;22147;52.388;13.390;2022-08-14T11:36:51;30.80;41.22
47757;SHT35;22147;52.388;13.390;2022-08-14T11:39:39;30.45;41.75
47757;SHT35;22147;52.388;13.390;2022-08-14T11:42:23;30.59;41.07
47757;SHT35;22147;52.388;13.390;2022-08-14T11:45:11;30.69;40.46
47757;SHT35;22147;52.388;13.390;2022-08-14T11:47:45;30.65;42.00
47757;SHT35;22147;52.388;13.390;2022-08-14T11:50:33;30.92;42.72
47757;SHT35;22147;52.388;13.390;2022-08-14T11:53:27;30.96;41.03
47757;SHT35;22147;52.388;13.390;2022-08-14T11:56:05;30.96;40.57
47757;SHT35;22147;52.388;13.390;2022-08-14T11:58:38;30.85;41.28
47757;SHT35;22147;52.388;13.390;2022-08-14T12:01:08;31.02;40.40
47757;SHT35;22147;52.388;13.390;2022-08-14T12:03:45;31.13;39.10
47757;SHT35;22147;52.388;13.390;2022-08-14T12:06:25;30.85;40.83
47757;SHT35;22147;52.388;13.390;2022-08-14T12:09:06;30.86;41.62
47757;SHT35;22147;52.388;13.390;2022-08-14T12:11:42;30.97;40.41
47757;SHT35;22147;52.388;13.390;2022-08-14T12:14:14;30.89;41.11
47757;SHT35;22147;52.388;13.390;2022-08-14T12:17:09;30.64;41.82
47757;SHT35;22147;52.388;13.390;2022-08-14T12:19:49;30.66;42.99
47757;SHT35;22147;52.388;13.390;2022-08-14T12:22:43;30.85;42.42
47757;SHT35;22147;52.388;13.390;2022-08-14T12:25:20;31.20;39.44
47757;SHT35;22147;52.388;13.390;2022-08-14T12:27:54;30.99;41.52
47757;SHT35;22147;52.388;13.390;2022-08-14T12:30:41;31.00;41.33
47757;SHT35;22147;52.388;13.390;2022-08-14T12:33:27;30.90;41.58
47757;SHT35;22147;52.388;13.390;2022-08-14T12:36:07;31.16;41.20
47757;SHT35;22147;52.388;13.390;2022-08-14T12:38:41;31.14;40.72
47757;SHT35;22147;52.388;13.390;2022-08-14T12:41:18;30.79;41.82
47757;SHT35;22147;52.388;13.390;2022-08-14T12:44:00;30.53;42.00
47757;SHT35;22147;52.388;13.390;2022-08-14T12:46:39;30.61;40.93
47757;SHT35;22147;52.388;13.390;2022-08-14T12:49:16;30.65;40.85
47757;SHT35;22147;52.388;13.390;2022-08-14T12:51:58;30.90;40.23
47757;SHT35;22147;52.388;13.390;2022-08-14T12:54:26;31.10;41.41
47757;SHT35;22147;52.388;13.390;2022-08-14T12:57:11;31.29;40.32
47757;SHT35;22147;52.388;13.390;2022-08-14T12:59:47;31.38;38.76
47757;SHT35;22147;52.388;13.390;2022-08-14T13:02:24;31.35;39.26
47757;SHT35;22147;52.388;13.390;2022-08-14T13:04:54;31.45;39.70
47757;SHT35;22147;52.388;13.390;2022-08-14T13:07:26;31.61;38.08
47757;SHT35;22147;52.388;13.390;2022-08-14T13:10:00;31.81;38.86
47757;SHT35;22147;52.388;13.390;2022-08-14T13:12:51;31.70;38.25
47757;SHT35;22147;52.388;13.390;2022-08-14T13:15:43;31.58;40.21
47757;SHT35;22147;52.388;13.390;2022-08-14T13:18:25;31.77;38.57
47757;SHT35;22147;52.388;13.390;2022-08-14T13:20:56;31.64;38.55
47757;SHT35;22147;52.388;13.390;2022-08-14T13:23:33;31.82;37.72
47757;SHT35;22147;52.388;13.390;2022-08-14T13:26:06;31.92;36.15
47757;SHT35;22147;52.388;13.390;2022-08-14T13:28:39;31.84;35.36
47757;SHT35;22147;52.388;13.390;2022-08-14T13:31:32;31.70;36.33
47757;SHT35;22147;52.388;13.390;2022-08-14T13:34:00;31.79;36.20
47757;SHT35;22147;52.388;13.390;2022-08-14T13:36:31;31.98;35.25
47757;SHT35;22147;52.388;13.390;2022-08-14T13:39:23;32.13;34.39
47757;SHT35;22147;52.388;13.390;2022-08-14T13:41:51;32.15;33.46
47757;SHT35;22147;52.388;13.390;2022-08-14T13:44:26;32.22;33.54
47757;SHT35;22147;52.388;13.390;2022-08-14T13:46:55;32.25;34.79
47757;SHT35;22147;52.388;13.390;2022-08-14T13:49:24;32.35;33.56
47757;SHT35;22147;52.388;13.390;2022-08-14T13:52:00;32.39;32.57
47757;SHT35;22147;52.388;13.390;2022-08-14T13:54:34;32.40;32.94
47757;SHT35;22147;52.388;13.390;2022-08-14T13:57:04;32.57;31.56
47757;SHT35;22147;52.388;13.390;2022-08-14T13:59:34;32.77;32.71
47757;SHT35;22147;52.388;13.390;2022-08-14T14:02:07;32.43;31.14
47757;SHT35;22147;52.388;13.390;2022-08-14T14:04:45;32.56;30.22
47757;SHT35;22147;52.388;13.390;2022-08-14T14:07:20;32.69;29.81
47757;SHT35;22147;52.388;13.390;2022-08-14T14:09:56;32.79;31.64
47757;SHT35;22147;52.388;13.390;2022-08-14T14:12:25;32.93;31.85
47757;SHT35;22147;52.388;13.390;2022-08-14T14:15:15;33.18;29.38
47757;SHT35;22147;52.388;13.390;2022-08-14T14:17:45;33.25;28.66
47757;SHT35;22147;52.388;13.390;2022-08-14T14:20:18;33.33;29.46
47757;SHT35;22147;52.388;13.390;2022-08-14T14:23:02;32.91;31.11
47757;SHT35;22147;52.388;13.390;2022-08-14T14:25:44;33.11;29.32
47757;SHT35;22147;52.388;13.390;2022-08-14T14:28:30;33.37;30.87
47757;SHT35;22147;52.388;13.390;2022-08-14T14:31:03;33.63;28.41
47757;SHT35;22147;52.388;13.390;2022-08-14T14:33:35;33.89;27.87
47757;SHT35;22147;52.388;13.390;2022-08-14T14:36:26;34.12;27.54
47757;SHT35;22147;52.388;13.390;2022-08-14T14:39:15;34.20;27.87
47757;SHT35;22147;52.388;13.390;2022-08-14T14:41:54;34.34;31.93
47757;SHT35;22147;52.388;13.390;2022-08-14T14:44:32;34.44;28.61
47757;SHT35;22147;52.388;13.390;2022-08-14T14:47:00;34.70;28.57
47757;SHT35;22147;52.388;13.390;2022-08-14T14:49:27;34.92;29.60
47757;SHT35;22147;52.388;13.390;2022-08-14T14:52:19;35.11;26.88
47757;SHT35;22147;52.388;13.390;2022-08-14T14:54:58;34.81;27.23
47757;SHT35;22147;52.388;13.390;2022-08-14T14:57:29;34.75;27.26
47757;SHT35;22147;52.388;13.390;2022-08-14T15:00:11;34.80;26.42
47757;SHT35;22147;52.388;13.390;2022-08-14T15:02:53;34.43;25.95
47757;SHT35;22147;52.388;13.390;2022-08-14T15:05:25;34.50;24.98
47757;SHT35;22147;52.388;13.390;2022-08-14T15:07:54;34.59;26.70
47757;SHT35;22147;52.388;13.390;2022-08-14T15:10:22;34.56;26.34
47757;SHT35;22147;52.388;13.390;2022-08-14T15:12:59;34.46;27.40
47757;SHT35;22147;52.388;13.390;2022-08-14T15:15:32;33.96;26.97
47757;SHT35;22147;52.388;13.390;2022-08-14T15:18:05;33.82;29.15
47757;SHT35;22147;52.388;13.390;2022-08-14T15:20:55;33.44;29.68
47757;SHT35;22147;52.388;13.390;2022-08-14T15:23:29;33.51;29.11
47757;SHT35;22147;52.388;13.390;2022-08-14T15:26:13;33.85;26.95
47757;SHT35;22147;52.388;13.390;2022-08-14T15:29:02;33.99;27.15
47757;SHT35;22147;52.388;13.390;2022-08-14T15:31:34;34.53;27.32
47757;SHT35;22147;52.388;13.390;2022-08-14T15:34:03;34.90;27.18
47757;SHT35;22147;52.388;13.390;2022-08-14T15:37:04;35.24;25.86
47757;SHT35;22147;52.388;13.390;2022-08-14T15:39:35;35.38;25.45
47757;SHT35;22147;52.388;13.390;2022-08-14T15:42:06;35.12;26.34
47757;SHT35;22147;52.388;13.390;2022-08-14T15:44:45;34.71;26.70
47757;SHT35;22147;52.388;13.390;2022-08-14T15:47:30;34.84;27.88
47757;SHT35;22147;52.388;13.390;2022-08-14T15:50:06;35.45;26.38
47757;SHT35;22147;52.388;13.390;2022-08-14T15:52:37;35.05;26.40
47757;SHT35;22147;52.388;13.390;2022-08-14T15:55:13;35.54;25.08
47757;SHT35;22147;52.388;13.390;2022-08-14T15:57:44;35.32;24.76
47757;SHT35;22147;52.388;13.390;2022-08-14T16:00:35;35.43;25.69
47757;SHT35;22147;52.388;13.390;2022-08-14T16:03:23;35.24;26.77
47757;SHT35;22147;52.388;13.390;2022-08-14T16:06:09;35.75;25.40
47757;SHT35;22147;52.388;13.390;2022-08-14T16:08:49;35.83;24.69
47757;SHT35;22147;52.388;13.390;2022-08-14T16:11:27;35.68;25.10
47757;SHT35;22147;52.388;13.390;2022-08-14T16:13:59;35.14;27.33
47757;SHT35;22147;52.388;13.390;2022-08-14T16:16:28;34.51;27.50
47757;SHT35;22147;52.388;13.390;2022-08-14T16:19:21;33.45;28.68
47757;SHT35;22147;52.388;13.390;2022-08-14T16:21:49;32.74;28.35